Terminal Aerodrome Forecast
Issued by NWS Wilmington, OH

Current Version | Previous Version | Graphics & Text | Print | Product List | Glossary On
Versions: 1 2 3 4 5 6 7 8 9 10 11 12 13 14 15
221
FTUS41 KILN 131128
TAFDAY
TAF
KDAY 131128Z 1312/1412 32011KT P6SM VCSH FEW025 SCT050
     FM131700 30012KT P6SM VCSH BKN022
     FM132300 27005KT P6SM FEW022 SCT250=

USA.gov is the U.S. government's official web portal to all federal, state and local government web resources and services.